createdAt,value
2018-11-07T00:01:48.630Z,8.00
2018-11-07T00:04:17.256Z,8.10
2018-11-07T00:06:45.866Z,8.10
2018-11-07T00:09:14.671Z,8.10
2018-11-07T00:11:43.268Z,8.10
2018-11-07T00:14:11.872Z,8.10
2018-11-07T00:16:40.505Z,8.20
2018-11-07T00:19:09.096Z,8.10
2018-11-07T00:21:37.687Z,8.10
2018-11-07T00:24:06.494Z,8.00
2018-11-07T00:26:35.062Z,8.00
2018-11-07T00:29:03.685Z,8.10
2018-11-07T00:31:32.686Z,8.10
2018-11-07T00:34:01.286Z,8.00
2018-11-07T00:36:29.849Z,8.00
2018-11-07T00:38:58.705Z,8.00
2018-11-07T00:41:27.358Z,8.10
2018-11-07T00:43:55.926Z,8.10
2018-11-07T00:46:24.740Z,8.10
2018-11-07T00:48:53.326Z,8.10
2018-11-07T00:51:21.894Z,8.10
2018-11-07T00:53:50.649Z,8.20
2018-11-07T00:56:19.225Z,8.20
2018-11-07T00:58:47.828Z,8.20
2018-11-07T01:01:16.725Z,8.20
2018-11-07T01:03:45.295Z,8.20
2018-11-07T01:06:14.073Z,8.20
2018-11-07T01:08:42.886Z,8.20
2018-11-07T01:11:11.486Z,8.20
2018-11-07T01:13:40.099Z,8.20
2018-11-07T01:16:09.106Z,8.30
2018-11-07T01:18:37.833Z,8.30
2018-11-07T01:21:06.503Z,8.30
2018-11-07T01:23:35.454Z,8.30
2018-11-07T01:26:04.081Z,8.30
2018-11-07T01:28:32.677Z,8.30
2018-11-07T01:31:01.294Z,8.30
2018-11-07T01:33:29.852Z,8.30
2018-11-07T01:35:58.418Z,8.20
2018-11-07T01:38:28.274Z,8.30
2018-11-07T01:40:56.849Z,8.30
2018-11-07T01:43:25.450Z,8.20
2018-11-07T01:45:54.297Z,8.20
2018-11-07T01:48:22.870Z,8.20
2018-11-07T01:50:51.531Z,8.30
2018-11-07T01:53:20.525Z,8.30
2018-11-07T01:55:49.129Z,8.30
2018-11-07T01:58:17.690Z,8.30
2018-11-07T02:00:46.322Z,8.30
2018-11-07T02:03:14.888Z,8.30
2018-11-07T02:05:43.465Z,8.30
2018-11-07T02:08:12.094Z,8.30
2018-11-07T02:10:40.666Z,8.30
2018-11-07T02:13:09.265Z,8.30
2018-11-07T02:15:38.081Z,8.30
2018-11-07T02:18:06.751Z,8.30
2018-11-07T02:20:35.357Z,8.30
2018-11-07T02:23:04.066Z,8.30
2018-11-07T02:25:32.670Z,8.30
2018-11-07T02:28:01.251Z,8.30
2018-11-07T02:30:30.118Z,8.30
2018-11-07T02:32:58.734Z,8.30
2018-11-07T02:35:27.289Z,8.30
2018-11-07T02:37:56.150Z,8.30
2018-11-07T02:40:24.741Z,8.30
2018-11-07T02:42:53.369Z,8.30
2018-11-07T02:45:22.342Z,8.30
2018-11-07T02:47:50.912Z,8.20
2018-11-07T02:50:19.500Z,8.20
2018-11-07T02:52:48.374Z,8.20
2018-11-07T02:55:16.951Z,8.20
2018-11-07T02:57:45.597Z,8.20
2018-11-07T03:00:14.329Z,8.10
2018-11-07T03:02:42.903Z,8.10
2018-11-07T03:05:11.518Z,8.00
2018-11-07T03:07:40.695Z,8.00
2018-11-07T03:10:11.337Z,8.00
2018-11-07T03:12:40.262Z,8.00
2018-11-07T03:15:09.601Z,8.10
2018-11-07T03:17:38.279Z,8.10
2018-11-07T03:20:08.589Z,8.10
2018-11-07T03:22:37.330Z,8.10
2018-11-07T03:25:06.114Z,8.10
2018-11-07T03:27:35.015Z,8.10
2018-11-07T03:30:04.186Z,8.10
2018-11-07T03:32:32.742Z,8.10
2018-11-07T03:35:01.398Z,8.00
2018-11-07T03:37:30.266Z,8.00
2018-11-07T03:39:58.930Z,8.10
2018-11-07T03:42:27.438Z,8.10
2018-11-07T03:44:56.042Z,8.10
2018-11-07T03:47:24.729Z,8.10
2018-11-07T03:49:53.333Z,8.10
2018-11-07T03:52:22.014Z,8.10
2018-11-07T03:54:50.578Z,8.10
2018-11-07T03:57:19.165Z,8.00
2018-11-07T03:59:47.753Z,8.00
2018-11-07T04:02:16.326Z,8.00
2018-11-07T04:04:44.883Z,8.00
2018-11-07T04:07:13.625Z,8.00
2018-11-07T04:09:42.203Z,8.00
2018-11-07T04:12:10.942Z,8.00
2018-11-07T04:14:39.773Z,8.00
2018-11-07T04:17:08.330Z,7.90
2018-11-07T04:19:36.888Z,7.90
2018-11-07T04:22:05.737Z,8.00
2018-11-07T04:24:34.356Z,7.90
2018-11-07T04:27:02.986Z,8.00
2018-11-07T04:29:31.866Z,8.00
2018-11-07T04:32:00.434Z,8.00
2018-11-07T04:34:29.125Z,8.00
2018-11-07T04:36:58.013Z,8.00
2018-11-07T04:39:26.561Z,8.00
2018-11-07T04:41:55.137Z,8.00
2018-11-07T04:44:24.166Z,8.00
2018-11-07T04:46:52.756Z,8.00
2018-11-07T04:49:21.329Z,8.00
2018-11-07T04:51:50.169Z,8.00
2018-11-07T04:54:18.743Z,8.00
2018-11-07T04:56:47.294Z,8.00
2018-11-07T04:59:16.373Z,8.00
2018-11-07T05:01:44.979Z,8.00
2018-11-07T05:04:13.677Z,8.00
2018-11-07T05:06:42.394Z,8.00
2018-11-07T05:09:11.010Z,7.90
2018-11-07T05:11:39.599Z,7.90
2018-11-07T05:14:08.458Z,7.90
2018-11-07T05:16:37.176Z,8.00
2018-11-07T05:19:05.845Z,8.00
2018-11-07T05:21:34.425Z,8.00
2018-11-07T05:24:03.097Z,7.90
2018-11-07T05:26:31.691Z,7.90
2018-11-07T05:29:00.679Z,7.80
2018-11-07T05:31:29.255Z,7.70
2018-11-07T05:33:58.022Z,7.70
2018-11-07T05:36:26.589Z,7.80
2018-11-07T05:38:55.229Z,7.80
2018-11-07T05:41:23.944Z,7.80
2018-11-07T05:43:52.550Z,7.70
2018-11-07T05:46:21.133Z,7.70
2018-11-07T05:48:49.754Z,7.70
2018-11-07T05:51:18.617Z,7.80
2018-11-07T05:53:47.190Z,7.80
2018-11-07T05:56:15.806Z,7.80
2018-11-07T05:58:44.369Z,7.80
2018-11-07T06:01:13.177Z,7.80
2018-11-07T06:03:41.794Z,7.80
2018-11-07T06:06:10.402Z,7.80
2018-11-07T06:08:39.008Z,7.80
2018-11-07T06:11:07.587Z,7.80
2018-11-07T06:13:36.191Z,7.80
2018-11-07T06:16:04.815Z,7.70
2018-11-07T06:18:34.277Z,7.70
2018-11-07T06:21:03.209Z,7.70
2018-11-07T06:23:31.778Z,7.70
2018-11-07T06:26:00.330Z,7.70
2018-11-07T06:28:29.010Z,7.70
2018-11-07T06:30:57.770Z,7.70
2018-11-07T06:33:26.355Z,7.70
2018-11-07T06:35:55.334Z,7.80
2018-11-07T06:38:23.929Z,7.90
2018-11-07T06:40:52.549Z,7.90
2018-11-07T06:43:21.668Z,8.00
2018-11-07T06:45:50.466Z,7.90
2018-11-07T06:48:19.002Z,7.90
2018-11-07T06:50:47.573Z,7.90
2018-11-07T06:53:16.169Z,7.90
2018-11-07T06:55:44.798Z,7.80
2018-11-07T06:58:13.395Z,7.80
2018-11-07T07:00:41.997Z,7.80
2018-11-07T07:03:10.566Z,7.80
2018-11-07T07:05:39.202Z,7.80
2018-11-07T07:08:07.977Z,7.80
2018-11-07T07:10:36.535Z,7.70
2018-11-07T07:13:05.457Z,7.70
2018-11-07T07:15:34.029Z,7.70
2018-11-07T07:18:02.711Z,7.70
2018-11-07T07:20:31.551Z,7.70
2018-11-07T07:23:00.171Z,7.70
2018-11-07T07:25:28.771Z,7.70
2018-11-07T07:27:57.442Z,7.80
2018-11-07T07:30:26.833Z,7.90
2018-11-07T07:32:55.688Z,7.80
2018-11-07T07:35:24.938Z,7.90
2018-11-07T07:37:53.860Z,7.90
2018-11-07T07:40:22.614Z,8.10
2018-11-07T07:42:51.972Z,8.10
2018-11-07T07:45:20.718Z,8.20
2018-11-07T07:47:49.322Z,8.10
2018-11-07T07:50:19.119Z,8.10
2018-11-07T07:52:47.711Z,8.20
2018-11-07T07:55:16.410Z,8.20
2018-11-07T07:57:45.048Z,8.20
2018-11-07T08:00:17.957Z,8.20
2018-11-07T08:02:47.631Z,8.20
2018-11-07T08:05:16.346Z,8.30
2018-11-07T08:07:45.326Z,8.30
2018-11-07T08:10:17.246Z,8.30
2018-11-07T08:12:46.238Z,8.30
2018-11-07T08:15:15.438Z,8.20
2018-11-07T08:17:44.617Z,8.20
2018-11-07T08:20:14.230Z,8.20
2018-11-07T08:22:43.653Z,8.30
2018-11-07T08:25:12.518Z,8.20
2018-11-07T08:27:41.295Z,8.30
2018-11-07T08:30:16.270Z,8.40
2018-11-07T08:32:44.882Z,8.30
2018-11-07T08:35:14.234Z,8.30
2018-11-07T08:37:43.814Z,8.30
2018-11-07T08:40:14.752Z,8.30
2018-11-07T08:42:43.411Z,8.40
2018-11-07T08:45:13.042Z,8.40
2018-11-07T08:47:42.170Z,8.50
2018-11-07T08:50:13.018Z,8.50
2018-11-07T08:52:42.193Z,8.50
2018-11-07T08:55:12.593Z,8.50
2018-11-07T08:57:41.151Z,8.60
2018-11-07T09:00:21.119Z,8.60
2018-11-07T09:02:49.778Z,8.50
2018-11-07T09:05:19.250Z,8.50
2018-11-07T09:07:48.584Z,8.50
2018-11-07T09:10:18.567Z,8.50
2018-11-07T09:12:47.126Z,8.50
2018-11-07T09:15:18.182Z,8.50
2018-11-07T09:17:46.881Z,8.40
2018-11-07T09:20:24.125Z,8.40
2018-11-07T09:22:52.772Z,8.50
2018-11-07T09:25:21.362Z,8.50
2018-11-07T09:27:50.093Z,8.50
2018-11-07T09:30:20.903Z,8.60
2018-11-07T09:32:49.502Z,8.60
2018-11-07T09:35:18.730Z,8.60
2018-11-07T09:37:47.334Z,8.70
2018-11-07T09:40:17.230Z,8.70
2018-11-07T09:42:46.550Z,8.70
2018-11-07T09:45:16.430Z,8.70
2018-11-07T09:47:45.526Z,8.70
2018-11-07T09:50:15.231Z,8.70
2018-11-07T09:52:44.178Z,8.70
2018-11-07T09:55:14.190Z,8.70
2018-11-07T09:57:43.182Z,8.70
2018-11-07T10:00:14.174Z,8.60
2018-11-07T10:02:43.173Z,8.50
2018-11-07T10:05:12.423Z,8.50
2018-11-07T10:07:41.448Z,8.40
2018-11-07T10:10:12.314Z,8.50
2018-11-07T10:12:41.209Z,8.60
2018-11-07T10:15:10.599Z,8.50
2018-11-07T10:17:39.241Z,8.60
2018-11-07T10:20:14.187Z,8.70
2018-11-07T10:22:43.490Z,8.70
2018-11-07T10:25:12.623Z,8.70
2018-11-07T10:27:41.523Z,8.70
2018-11-07T10:30:12.171Z,8.70
2018-11-07T10:32:41.236Z,8.80
2018-11-07T10:35:10.310Z,8.90
2018-11-07T10:37:38.930Z,8.90
2018-11-07T10:40:14.249Z,8.90
2018-11-07T10:42:42.983Z,8.90
2018-11-07T10:45:12.277Z,8.90
2018-11-07T10:47:41.250Z,8.90
2018-11-07T10:50:11.099Z,8.90
2018-11-07T10:52:40.498Z,8.90
2018-11-07T10:55:09.764Z,8.90
2018-11-07T10:57:38.608Z,8.90
2018-11-07T11:00:14.055Z,8.90
2018-11-07T11:02:51.798Z,9.00
2018-11-07T11:05:20.809Z,9.10
2018-11-07T11:07:49.325Z,9.10
2018-11-07T11:10:18.114Z,9.00
2018-11-07T11:12:46.758Z,9.00
2018-11-07T11:15:15.309Z,8.90
2018-11-07T11:17:43.935Z,8.90
2018-11-07T11:20:13.731Z,8.90
2018-11-07T11:22:42.354Z,8.90
2018-11-07T11:25:11.158Z,8.90
2018-11-07T11:27:39.777Z,9.00
2018-11-07T11:30:09.164Z,9.00
2018-11-07T11:32:38.209Z,9.00
2018-11-07T11:35:07.825Z,8.90
2018-11-07T11:37:36.322Z,8.90
2018-11-07T11:40:06.014Z,9.00
2018-11-07T11:42:34.745Z,8.90
2018-11-07T11:45:03.354Z,8.90
2018-11-07T11:47:31.938Z,8.90
2018-11-07T11:50:00.761Z,8.90
2018-11-07T11:52:29.326Z,8.90
2018-11-07T11:54:58.063Z,8.90
2018-11-07T11:57:26.749Z,9.00
2018-11-07T11:59:55.621Z,8.90
2018-11-07T12:02:23.979Z,8.90
2018-11-07T12:04:52.582Z,9.00
2018-11-07T12:07:21.190Z,9.00
2018-11-07T12:09:49.819Z,8.90
2018-11-07T12:12:18.538Z,8.90
2018-11-07T12:14:47.091Z,8.90
2018-11-07T12:17:15.945Z,8.80
2018-11-07T12:19:44.562Z,8.90
2018-11-07T12:22:13.180Z,8.80
2018-11-07T12:24:41.763Z,8.80
2018-11-07T12:27:10.779Z,8.70
2018-11-07T12:29:39.403Z,8.60
2018-11-07T12:32:08.011Z,8.60
2018-11-07T12:34:36.649Z,8.60
2018-11-07T12:37:05.486Z,8.60
2018-11-07T12:39:34.217Z,8.60
2018-11-07T12:42:02.802Z,8.60
2018-11-07T12:44:31.410Z,8.60
2018-11-07T12:47:00.019Z,8.60
2018-11-07T12:49:28.647Z,8.70
2018-11-07T12:51:57.210Z,8.70
2018-11-07T12:54:25.795Z,8.60
2018-11-07T12:56:54.433Z,8.60
2018-11-07T12:59:23.010Z,8.50
2018-11-07T13:01:51.777Z,8.60
2018-11-07T13:04:20.654Z,8.50
2018-11-07T13:06:49.222Z,8.50
2018-11-07T13:09:17.828Z,8.50
2018-11-07T13:11:46.413Z,8.50
2018-11-07T13:14:14.998Z,8.60
2018-11-07T13:16:43.653Z,8.60
2018-11-07T13:19:12.242Z,8.50
2018-11-07T13:21:40.926Z,8.50
2018-11-07T13:24:09.494Z,8.50
2018-11-07T13:26:38.091Z,8.40
2018-11-07T13:29:06.923Z,8.50
2018-11-07T13:31:35.501Z,8.40
2018-11-07T13:34:04.154Z,8.40
2018-11-07T13:36:32.723Z,8.40
2018-11-07T13:39:01.729Z,8.40
2018-11-07T13:41:29.937Z,8.40
2018-11-07T13:43:58.621Z,8.40
2018-11-07T13:46:27.243Z,8.40
2018-11-07T13:48:55.962Z,8.30
2018-11-07T13:51:24.529Z,8.40
2018-11-07T13:53:53.122Z,8.40
2018-11-07T13:56:21.766Z,8.40
2018-11-07T13:58:50.398Z,8.40
2018-11-07T14:01:19.065Z,8.40
2018-11-07T14:03:48.046Z,8.30
2018-11-07T14:06:16.826Z,8.20
2018-11-07T14:08:45.418Z,8.20
2018-11-07T14:11:14.327Z,8.10
2018-11-07T14:13:42.998Z,8.00
2018-11-07T14:16:11.777Z,8.00
2018-11-07T14:18:40.352Z,8.00
2018-11-07T14:21:09.003Z,8.10
2018-11-07T14:23:37.638Z,8.10
2018-11-07T14:26:06.272Z,8.00
2018-11-07T14:28:35.206Z,8.00
2018-11-07T14:31:03.874Z,8.00
2018-11-07T14:33:32.942Z,8.10
2018-11-07T14:36:01.547Z,8.10
2018-11-07T14:38:30.203Z,8.10
2018-11-07T14:40:58.773Z,8.10
2018-11-07T14:43:27.385Z,8.10
2018-11-07T14:45:55.998Z,8.10
2018-11-07T14:48:24.899Z,8.00
2018-11-07T14:50:53.611Z,7.90
2018-11-07T14:53:22.188Z,7.90
2018-11-07T14:55:50.800Z,8.00
2018-11-07T14:58:19.374Z,8.00
2018-11-07T15:00:47.998Z,8.00
2018-11-07T15:03:16.822Z,8.10
2018-11-07T15:05:45.520Z,8.00
2018-11-07T15:08:14.095Z,8.00
2018-11-07T15:10:42.968Z,8.10
2018-11-07T15:15:39.950Z,8.10
2018-11-07T15:18:08.904Z,8.20
2018-11-07T15:20:37.473Z,8.20
2018-11-07T15:23:06.394Z,8.20
2018-11-07T15:25:35.335Z,8.20
2018-11-07T15:28:03.966Z,8.20
2018-11-07T15:30:32.538Z,8.10
2018-11-07T15:33:01.507Z,8.20
2018-11-07T15:35:30.234Z,8.20
2018-11-07T15:37:58.803Z,8.30
2018-11-07T15:40:27.726Z,8.20
2018-11-07T15:42:56.305Z,8.20
2018-11-07T15:45:24.914Z,8.20
2018-11-07T15:47:53.514Z,8.20
2018-11-07T15:50:27.286Z,8.20
2018-11-07T15:52:55.898Z,8.20
2018-11-07T15:55:24.487Z,8.20
2018-11-07T15:57:53.058Z,8.20
2018-11-07T16:00:22.016Z,8.10
2018-11-07T16:02:50.598Z,8.10
2018-11-07T16:05:19.209Z,8.20
2018-11-07T16:07:47.785Z,8.10
2018-11-07T16:10:16.634Z,8.10
2018-11-07T16:12:45.211Z,8.10
2018-11-07T16:15:15.629Z,8.10
2018-11-07T16:17:44.546Z,8.00
2018-11-07T16:20:14.585Z,8.00
2018-11-07T16:22:44.416Z,8.00
2018-11-07T16:25:12.974Z,7.90
2018-11-07T16:27:42.410Z,7.90
2018-11-07T16:30:13.722Z,7.90
2018-11-07T16:32:42.310Z,7.90
2018-11-07T16:35:11.902Z,7.90
2018-11-07T16:37:41.206Z,7.90
2018-11-07T16:40:11.567Z,7.90
2018-11-07T16:42:40.617Z,7.90
2018-11-07T16:45:10.521Z,7.90
2018-11-07T16:47:39.243Z,7.90
2018-11-07T16:50:09.122Z,7.90
2018-11-07T16:52:37.856Z,7.90
2018-11-07T16:55:06.725Z,7.90
2018-11-07T16:57:35.943Z,7.90
2018-11-07T17:00:06.202Z,7.90
2018-11-07T17:02:34.786Z,7.90
2018-11-07T17:05:03.427Z,7.90
2018-11-07T17:07:32.486Z,7.90
2018-11-07T17:10:01.064Z,7.90
2018-11-07T17:12:29.654Z,8.00
2018-11-07T17:14:58.269Z,8.00
2018-11-07T17:17:26.817Z,7.90
2018-11-07T17:19:55.520Z,7.90
2018-11-07T17:22:24.770Z,7.90
2018-11-07T17:24:53.930Z,7.90
2018-11-07T17:27:22.629Z,8.00
2018-11-07T17:29:51.730Z,8.00
2018-11-07T17:32:20.830Z,8.00
2018-11-07T17:34:49.835Z,8.00
2018-11-07T17:37:19.271Z,7.90
2018-11-07T17:39:48.450Z,7.90
2018-11-07T17:42:17.462Z,7.90
2018-11-07T17:44:46.692Z,7.90
2018-11-07T17:47:15.763Z,7.90
2018-11-07T17:49:44.358Z,8.00
2018-11-07T17:52:13.210Z,8.00
2018-11-07T17:54:41.820Z,8.00
2018-11-07T17:57:10.445Z,7.90
2018-11-07T17:59:39.295Z,7.90
2018-11-07T18:02:09.017Z,7.90
2018-11-07T18:04:37.622Z,7.90
2018-11-07T18:07:06.590Z,7.90
2018-11-07T18:09:35.239Z,7.90
2018-11-07T18:12:03.793Z,7.90
2018-11-07T18:14:32.470Z,7.90
2018-11-07T18:17:01.047Z,7.90
2018-11-07T18:19:29.681Z,7.90
2018-11-07T18:21:58.715Z,7.90
2018-11-07T18:24:27.469Z,7.90
2018-11-07T18:26:56.073Z,7.90
2018-11-07T18:29:24.928Z,7.90
2018-11-07T18:31:53.506Z,7.90
2018-11-07T18:34:22.138Z,7.90
2018-11-07T18:36:50.839Z,7.90
2018-11-07T18:39:19.401Z,7.90
2018-11-07T18:41:47.998Z,7.80
2018-11-07T18:44:17.013Z,7.80
2018-11-07T18:46:47.566Z,7.90
2018-11-07T18:49:16.141Z,7.80
2018-11-07T18:51:44.985Z,7.80
2018-11-07T18:54:14.022Z,7.80
2018-11-07T18:56:42.614Z,7.90
2018-11-07T18:59:11.541Z,7.90
2018-11-07T19:01:40.138Z,7.90
2018-11-07T19:04:08.726Z,7.90
2018-11-07T19:06:37.444Z,7.90
2018-11-07T19:09:07.774Z,7.90
2018-11-07T19:11:36.654Z,7.90
2018-11-07T19:14:05.608Z,7.90
2018-11-07T19:22:49.544Z,7.90
2018-11-07T19:25:42.668Z,7.80
2018-11-07T19:31:44.242Z,7.70
2018-11-07T19:47:14.056Z,7.70
2018-11-07T19:49:59.333Z,7.70
2018-11-07T19:52:47.945Z,7.80
2018-11-07T19:55:32.871Z,7.70
2018-11-07T19:58:14.647Z,7.70
2018-11-07T20:00:57.838Z,7.70
2018-11-07T20:09:40.483Z,7.80
2018-11-07T20:21:33.831Z,7.80
2018-11-07T20:30:06.137Z,7.70
2018-11-07T20:33:25.928Z,7.80
2018-11-07T20:36:28.787Z,7.80
2018-11-07T20:39:02.126Z,7.80
2018-11-07T20:41:39.904Z,7.70
2018-11-07T20:44:17.345Z,7.70
2018-11-07T20:46:52.915Z,7.70
2018-11-07T20:49:32.499Z,7.70
2018-11-07T20:52:13.325Z,7.70
2018-11-07T20:54:52.699Z,7.80
2018-11-07T20:57:27.578Z,7.80
2018-11-07T21:00:43.731Z,7.80
2018-11-07T21:03:18.608Z,7.80
2018-11-07T21:12:09.802Z,7.80
2018-11-07T21:14:48.776Z,7.80
2018-11-07T21:17:18.578Z,7.80
2018-11-07T21:19:48.142Z,7.80
2018-11-07T21:22:17.824Z,7.80
2018-11-07T21:24:47.413Z,7.80
2018-11-07T21:27:18.328Z,7.80
2018-11-07T21:29:54.031Z,7.80
2018-11-07T21:32:24.137Z,7.80
2018-11-07T21:34:54.468Z,7.90
2018-11-07T21:37:23.862Z,7.80
2018-11-07T21:39:53.126Z,7.80
2018-11-07T21:42:23.151Z,7.70
2018-11-07T21:44:54.077Z,7.70
2018-11-07T21:47:23.692Z,7.70
2018-11-07T21:49:53.652Z,7.80
2018-11-07T21:52:25.576Z,7.80
2018-11-07T21:54:55.315Z,7.70
2018-11-07T21:57:24.810Z,7.80
2018-11-07T21:59:54.598Z,7.80
2018-11-07T22:02:24.426Z,7.80
2018-11-07T22:04:54.677Z,7.80
2018-11-07T22:07:24.340Z,7.90
2018-11-07T22:09:53.820Z,7.90
2018-11-07T22:12:23.549Z,7.80
2018-11-07T22:14:53.156Z,7.80
2018-11-07T22:17:22.414Z,7.80
2018-11-07T22:19:52.212Z,7.80
2018-11-07T22:22:21.348Z,7.80
2018-11-07T22:24:50.916Z,7.80
2018-11-07T22:27:20.928Z,7.80
2018-11-07T22:29:50.621Z,7.80
2018-11-07T22:32:20.223Z,7.80
2018-11-07T22:34:49.950Z,7.80
2018-11-07T22:37:19.729Z,7.80
2018-11-07T22:39:48.865Z,7.80
2018-11-07T22:42:18.449Z,7.80
2018-11-07T22:44:48.023Z,7.90
2018-11-07T22:47:17.484Z,7.80
2018-11-07T22:49:47.433Z,7.80
2018-11-07T22:52:16.723Z,7.80
2018-11-07T22:54:46.675Z,7.90
2018-11-07T22:57:16.201Z,7.80
2018-11-07T22:59:45.477Z,7.80
2018-11-07T23:02:14.712Z,7.80
2018-11-07T23:04:44.004Z,7.80
2018-11-07T23:07:14.141Z,7.80
2018-11-07T23:09:43.599Z,7.80
2018-11-07T23:12:12.844Z,7.80
2018-11-07T23:14:42.015Z,7.80
2018-11-07T23:17:11.406Z,7.80
2018-11-07T23:19:41.004Z,7.80
2018-11-07T23:22:11.338Z,7.80
2018-11-07T23:24:42.140Z,7.80
2018-11-07T23:27:11.244Z,7.80
2018-11-07T23:29:40.819Z,7.80
2018-11-07T23:32:10.389Z,7.90
2018-11-07T23:37:37.196Z,7.90
2018-11-07T23:40:08.193Z,7.90
2018-11-07T23:42:37.555Z,7.80
2018-11-07T23:45:07.251Z,7.80
2018-11-07T23:47:36.558Z,7.80
2018-11-07T23:50:06.770Z,7.80
2018-11-07T23:52:41.294Z,7.80
2018-11-07T23:55:10.578Z,7.80
2018-11-07T23:57:41.748Z,7.80
